Altoona Blair County Airport
KAOO : now visible

Airfield :











YOU CAN JOIN US ON...

 
LOGIN :

Register | Disclaimer

   EN    FR    IT 

 









Legend :    VFR   Marginal VFR   IFR   Intensive IFR   Very Intensive IFR
Visi :
Ceiling :
>= 8 km
>= 3000ft
5 to 8 km
1000 to 3000 ft
1500m to 5 km
500 to 1000 ft
800 to 1500m
200 to 500 ft
< 800m
< 200 ft
Symbols :   Thunderstorms  Fog  Heavy snow  Heavy precipitations  Wind > 20 kt






- Airport Elevation : 1503 ft
- IATA code : AOO


KAOO - Altoona Blair County

CURRENT METAR :
  • 071453Z AUTO 24005KT 10SM SCT022 BKN030 OVC046 27/22 A3023 RMK AO2 SLP225 T02670217 55005

EXPIRED METARs :
  • 071435Z AUTO VRB03KT 10SM FEW020 SCT025 BKN031 27/22 A3023 RMK AO2 T02670217
  • 071406Z AUTO 23006KT 10SM BKN015 BKN022 OVC100 26/22 A3023 RMK AO2 T02560217
  • 071328Z AUTO 21007KT 10SM SCT023 BKN085 BKN100 26/22 A3023 RMK AO2 T02610217
  • 071253Z AUTO 21006KT 10SM OVC023 23/21 A3024 RMK AO2 SLP230 T02330211
  • 071244Z AUTO 22007KT 10SM BKN023 BKN075 23/21 A3024 RMK AO2 T02330211

TAF KAOO
Valid from the 07 at 15:00 until the 08 at 12:00 UTC


071527Z 0715/0812 23005KT P6SM BKN035
FM071800 25007KT P6SM VCTS BKN040CB
FM080000 23005KT P6SM SCT040
FM080600 22003KT 4SM BR SCT040 BKN120
KZOB FIR / North America



MET'MAP, your aeronautical weather chart ! - Copyright ORBIFLY December 2007 - Disclaimer

ORBIFLY MET'MAP TEAM :

Programming & Development : Alexandra Zaïnal
Original concept : Baudouin d'Aumeries
Technical & hardware support : Manuel Goepfert
Assistance : Marc-Olivier Méhu




SOURCES & CREDITS :

   NOAA       Earth
Advisory